Tiger, Georgia
Current Conditions -  °F | °C
As of 12:35 PM on Sunday 23 Nov 2014 (Local Time) from KTOC Reporting Station
Heavy Rain Heavy Rain  
Wind Chill: 45°   Ceiling: 400
Heat Index: 49°   Visibility: 2mi
Dew Point: 49°   Wind: 9mph
Humidity: 98%   Direction: 60°ENE
Pressure: 29.97"   Gusts: 17mph
Location:  34.85°N, 83.43°W
Report Text: KTOC 231735Z AUTO 06008G15KT 2SM +RA OVC004 10/09 A2997 RMK AO2 T00950092
Loading
Personal Weather Stations






























Interactive Weather Map New forecast layout! Learn more

10-Day Weather Forecast

Advertisements
Track Severe Weather on mobile